sensor_id;sensor_type;location;lat;lon;timestamp;pressure;altitude;pressure_sealevel;temperature;humidity
75942;BME280;64622;46.220;19.878;2024-02-26T00:01:47;99737.13;;;9.64;100.00
75942;BME280;64622;46.220;19.878;2024-02-26T00:04:14;99754.97;;;9.55;100.00
75942;BME280;64622;46.220;19.878;2024-02-26T00:06:41;99746.75;;;9.41;100.00
75942;BME280;64622;46.220;19.878;2024-02-26T00:09:08;99741.78;;;9.38;100.00
75942;BME280;64622;46.220;19.878;2024-02-26T00:11:38;99736.09;;;9.49;100.00
75942;BME280;64622;46.220;19.878;2024-02-26T00:14:05;99742.63;;;9.54;100.00
75942;BME280;64622;46.220;19.878;2024-02-26T00:16:31;99727.59;;;9.45;100.00
75942;BME280;64622;46.220;19.878;2024-02-26T00:18:58;99731.41;;;9.51;100.00
75942;BME280;64622;46.220;19.878;2024-02-26T00:21:25;99728.59;;;9.52;100.00
75942;BME280;64622;46.220;19.878;2024-02-26T00:23:53;99729.44;;;9.53;100.00
75942;BME280;64622;46.220;19.878;2024-02-26T00:26:19;99731.41;;;9.51;100.00
75942;BME280;64622;46.220;19.878;2024-02-26T00:28:46;99721.75;;;9.42;100.00
75942;BME280;64622;46.220;19.878;2024-02-26T00:31:13;99721.06;;;9.40;100.00
75942;BME280;64622;46.220;19.878;2024-02-26T00:33:40;99721.75;;;9.50;100.00
75942;BME280;64622;46.220;19.878;2024-02-26T00:36:06;99722.44;;;9.52;100.00
75942;BME280;64622;46.220;19.878;2024-02-26T00:38:33;99715.91;;;9.46;100.00
75942;BME280;64622;46.220;19.878;2024-02-26T00:41:00;99721.25;;;9.54;100.00
75942;BME280;64622;46.220;19.878;2024-02-26T00:43:26;99722.59;;;9.50;100.00
75942;BME280;64622;46.220;19.878;2024-02-26T00:45:53;99723.59;;;9.49;100.00
75942;BME280;64622;46.220;19.878;2024-02-26T00:48:20;99721.59;;;9.51;100.00
75942;BME280;64622;46.220;19.878;2024-02-26T00:50:46;99714.56;;;9.50;100.00
75942;BME280;64622;46.220;19.878;2024-02-26T00:53:13;99709.22;;;9.58;100.00
75942;BME280;64622;46.220;19.878;2024-02-26T00:55:40;99714.25;;;9.61;100.00
75942;BME280;64622;46.220;19.878;2024-02-26T00:58:06;99704.06;;;9.57;100.00
75942;BME280;64622;46.220;19.878;2024-02-26T01:00:32;99699.38;;;9.59;100.00
75942;BME280;64622;46.220;19.878;2024-02-26T01:03:00;99703.37;;;9.55;100.00
75942;BME280;64622;46.220;19.878;2024-02-26T01:05:26;99699.03;;;9.54;100.00
75942;BME280;64622;46.220;19.878;2024-02-26T01:07:53;99697.88;;;9.56;100.00
75942;BME280;64622;46.220;19.878;2024-02-26T01:10:20;99696.87;;;9.57;100.00
75942;BME280;64622;46.220;19.878;2024-02-26T01:12:46;99684.69;;;9.47;100.00
75942;BME280;64622;46.220;19.878;2024-02-26T01:15:14;99693.72;;;9.62;100.00
75942;BME280;64622;46.220;19.878;2024-02-26T01:17:41;99677.84;;;9.60;100.00
75942;BME280;64622;46.220;19.878;2024-02-26T01:20:07;99675.31;;;9.51;100.00
75942;BME280;64622;46.220;19.878;2024-02-26T01:22:35;99682.00;;;9.55;100.00
75942;BME280;64622;46.220;19.878;2024-02-26T01:25:02;99671.00;;;9.50;100.00
75942;BME280;64622;46.220;19.878;2024-02-26T01:27:28;99653.97;;;9.43;100.00
75942;BME280;64622;46.220;19.878;2024-02-26T01:29:55;99654.47;;;9.46;100.00
75942;BME280;64622;46.220;19.878;2024-02-26T01:32:21;99655.31;;;9.63;100.00
75942;BME280;64622;46.220;19.878;2024-02-26T01:34:48;99653.13;;;9.66;100.00
75942;BME280;64622;46.220;19.878;2024-02-26T01:37:14;99662.16;;;9.65;100.00
75942;BME280;64622;46.220;19.878;2024-02-26T01:39:41;99652.97;;;9.68;100.00
75942;BME280;64622;46.220;19.878;2024-02-26T01:42:08;99651.09;;;9.76;100.00
75942;BME280;64622;46.220;19.878;2024-02-26T01:44:34;99644.59;;;9.71;100.00
75942;BME280;64622;46.220;19.878;2024-02-26T01:47:01;99646.28;;;9.64;100.00
75942;BME280;64622;46.220;19.878;2024-02-26T01:49:29;99635.91;;;9.61;100.00
75942;BME280;64622;46.220;19.878;2024-02-26T01:51:56;99633.25;;;9.61;100.00
75942;BME280;64622;46.220;19.878;2024-02-26T01:54:24;99637.44;;;9.55;100.00
75942;BME280;64622;46.220;19.878;2024-02-26T01:56:51;99643.78;;;9.54;100.00
75942;BME280;64622;46.220;19.878;2024-02-26T01:59:18;99645.44;;;9.71;100.00
75942;BME280;64622;46.220;19.878;2024-02-26T02:01:47;99641.78;;;9.64;100.00
75942;BME280;64622;46.220;19.878;2024-02-26T02:04:17;99641.25;;;9.61;100.00
75942;BME280;64622;46.220;19.878;2024-02-26T02:06:45;99640.09;;;9.47;100.00
75942;BME280;64622;46.220;19.878;2024-02-26T02:09:12;99641.13;;;9.46;100.00
75942;BME280;64622;46.220;19.878;2024-02-26T02:11:39;99649.78;;;9.48;100.00
75942;BME280;64622;46.220;19.878;2024-02-26T02:14:06;99656.81;;;9.41;100.00
75942;BME280;64622;46.220;19.878;2024-02-26T02:16:32;99661.31;;;9.41;100.00
75942;BME280;64622;46.220;19.878;2024-02-26T02:18:59;99640.28;;;9.38;100.00
75942;BME280;64622;46.220;19.878;2024-02-26T02:21:26;99640.94;;;9.40;100.00
75942;BME280;64622;46.220;19.878;2024-02-26T02:23:52;99644.44;;;9.48;100.00
75942;BME280;64622;46.220;19.878;2024-02-26T02:26:20;99638.59;;;9.69;100.00
75942;BME280;64622;46.220;19.878;2024-02-26T02:28:47;99635.72;;;9.78;100.00
75942;BME280;64622;46.220;19.878;2024-02-26T02:31:15;99634.56;;;9.81;100.00
75942;BME280;64622;46.220;19.878;2024-02-26T02:33:42;99637.69;;;10.00;100.00
75942;BME280;64622;46.220;19.878;2024-02-26T02:36:09;99640.63;;;10.29;100.00
75942;BME280;64622;46.220;19.878;2024-02-26T02:38:37;99633.06;;;10.41;100.00
75942;BME280;64622;46.220;19.878;2024-02-26T02:41:04;99630.22;;;10.42;100.00
75942;BME280;64622;46.220;19.878;2024-02-26T02:43:31;99619.66;;;10.49;100.00
75942;BME280;64622;46.220;19.878;2024-02-26T02:45:58;99620.44;;;10.57;100.00
75942;BME280;64622;46.220;19.878;2024-02-26T02:48:25;99632.66;;;10.60;100.00
75942;BME280;64622;46.220;19.878;2024-02-26T02:50:52;99627.44;;;10.66;100.00
75942;BME280;64622;46.220;19.878;2024-02-26T02:53:18;99621.72;;;10.69;100.00
75942;BME280;64622;46.220;19.878;2024-02-26T02:55:45;99617.38;;;10.68;100.00
75942;BME280;64622;46.220;19.878;2024-02-26T02:58:11;99624.06;;;10.72;100.00
75942;BME280;64622;46.220;19.878;2024-02-26T03:00:38;99614.00;;;10.74;100.00
75942;BME280;64622;46.220;19.878;2024-02-26T03:03:05;99618.72;;;10.64;100.00
75942;BME280;64622;46.220;19.878;2024-02-26T03:05:31;99607.50;;;10.69;100.00
75942;BME280;64622;46.220;19.878;2024-02-26T03:07:58;99610.38;;;10.67;100.00
75942;BME280;64622;46.220;19.878;2024-02-26T03:10:25;99617.03;;;10.71;100.00
75942;BME280;64622;46.220;19.878;2024-02-26T03:12:51;99624.28;;;10.63;100.00
75942;BME280;64622;46.220;19.878;2024-02-26T03:15:18;99611.78;;;10.55;100.00
75942;BME280;64622;46.220;19.878;2024-02-26T03:17:45;99612.44;;;10.57;100.00
75942;BME280;64622;46.220;19.878;2024-02-26T03:20:11;99614.97;;;10.51;100.00
75942;BME280;64622;46.220;19.878;2024-02-26T03:22:39;99615.97;;;10.50;100.00
75942;BME280;64622;46.220;19.878;2024-02-26T03:25:07;99621.56;;;10.40;100.00
75942;BME280;64622;46.220;19.878;2024-02-26T03:27:33;99623.00;;;10.51;100.00
75942;BME280;64622;46.220;19.878;2024-02-26T03:30:00;99619.13;;;10.53;100.00
75942;BME280;64622;46.220;19.878;2024-02-26T03:32:27;99621.47;;;10.56;100.00
75942;BME280;64622;46.220;19.878;2024-02-26T03:34:53;99620.63;;;10.56;100.00
75942;BME280;64622;46.220;19.878;2024-02-26T03:37:22;99618.09;;;10.62;100.00
75942;BME280;64622;46.220;19.878;2024-02-26T03:39:48;99611.28;;;10.52;100.00
75942;BME280;64622;46.220;19.878;2024-02-26T03:42:15;99605.25;;;10.58;100.00
75942;BME280;64622;46.220;19.878;2024-02-26T03:44:43;99613.34;;;10.72;100.00
75942;BME280;64622;46.220;19.878;2024-02-26T03:47:09;99607.72;;;10.59;100.00
75942;BME280;64622;46.220;19.878;2024-02-26T03:49:36;99617.25;;;10.62;100.00
75942;BME280;64622;46.220;19.878;2024-02-26T03:52:02;99622.09;;;10.66;100.00
75942;BME280;64622;46.220;19.878;2024-02-26T03:54:29;99618.09;;;10.62;100.00
75942;BME280;64622;46.220;19.878;2024-02-26T03:56:55;99615.88;;;10.66;100.00
75942;BME280;64622;46.220;19.878;2024-02-26T03:59:22;99625.88;;;10.41;100.00
75942;BME280;64622;46.220;19.878;2024-02-26T04:01:51;99622.69;;;10.46;100.00
75942;BME280;64622;46.220;19.878;2024-02-26T04:04:17;99622.19;;;10.42;100.00
75942;BME280;64622;46.220;19.878;2024-02-26T04:06:47;99625.22;;;10.39;100.00
75942;BME280;64622;46.220;19.878;2024-02-26T04:09:14;99619.22;;;10.29;100.00
75942;BME280;64622;46.220;19.878;2024-02-26T04:11:41;99615.59;;;10.22;100.00
75942;BME280;64622;46.220;19.878;2024-02-26T04:14:09;99614.78;;;10.14;100.00
75942;BME280;64622;46.220;19.878;2024-02-26T04:16:38;99626.13;;;10.24;100.00
75942;BME280;64622;46.220;19.878;2024-02-26T04:19:05;99625.81;;;10.11;100.00
75942;BME280;64622;46.220;19.878;2024-02-26T04:21:33;99627.50;;;10.04;100.00
75942;BME280;64622;46.220;19.878;2024-02-26T04:24:00;99628.47;;;10.19;100.00
75942;BME280;64622;46.220;19.878;2024-02-26T04:26:30;99630.19;;;10.12;100.00
75942;BME280;64622;46.220;19.878;2024-02-26T04:28:56;99631.88;;;10.05;100.00
75942;BME280;64622;46.220;19.878;2024-02-26T04:31:22;99623.16;;;10.03;100.00
75942;BME280;64622;46.220;19.878;2024-02-26T04:33:49;99621.00;;;10.06;100.00
75942;BME280;64622;46.220;19.878;2024-02-26T04:36:16;99622.66;;;10.07;100.00
75942;BME280;64622;46.220;19.878;2024-02-26T04:38:45;99619.16;;;9.99;100.00
75942;BME280;64622;46.220;19.878;2024-02-26T04:41:12;99623.84;;;9.89;100.00
75942;BME280;64622;46.220;19.878;2024-02-26T04:43:38;99621.88;;;9.83;100.00
75942;BME280;64622;46.220;19.878;2024-02-26T04:46:10;99619.84;;;9.85;100.00
75942;BME280;64622;46.220;19.878;2024-02-26T04:48:37;99625.41;;;9.75;100.00
75942;BME280;64622;46.220;19.878;2024-02-26T04:51:04;99635.56;;;9.88;100.00
75942;BME280;64622;46.220;19.878;2024-02-26T04:53:31;99624.72;;;9.73;100.00
75942;BME280;64622;46.220;19.878;2024-02-26T04:55:58;99618.06;;;9.53;100.00
75942;BME280;64622;46.220;19.878;2024-02-26T04:58:24;99611.38;;;9.57;100.00
75942;BME280;64622;46.220;19.878;2024-02-26T05:00:51;99611.72;;;9.38;100.00
75942;BME280;64622;46.220;19.878;2024-02-26T05:03:18;99615.91;;;9.33;100.00
75942;BME280;64622;46.220;19.878;2024-02-26T05:05:44;99615.75;;;9.26;100.00
75942;BME280;64622;46.220;19.878;2024-02-26T05:08:11;99605.72;;;9.28;100.00
75942;BME280;64622;46.220;19.878;2024-02-26T05:10:38;99608.59;;;9.27;100.00
75942;BME280;64622;46.220;19.878;2024-02-26T05:13:07;99612.91;;;9.28;100.00
75942;BME280;64622;46.220;19.878;2024-02-26T05:15:33;99608.38;;;9.28;100.00
75942;BME280;64622;46.220;19.878;2024-02-26T05:18:00;99602.06;;;9.29;100.00
75942;BME280;64622;46.220;19.878;2024-02-26T05:20:27;99604.25;;;9.18;100.00
75942;BME280;64622;46.220;19.878;2024-02-26T05:22:53;99596.56;;;9.23;100.00
75942;BME280;64622;46.220;19.878;2024-02-26T05:25:20;99598.56;;;9.29;100.00
75942;BME280;64622;46.220;19.878;2024-02-26T05:27:47;99598.06;;;9.25;100.00
75942;BME280;64622;46.220;19.878;2024-02-26T05:30:14;99608.06;;;9.39;100.00
75942;BME280;64622;46.220;19.878;2024-02-26T05:32:41;99614.06;;;9.33;100.00
75942;BME280;64622;46.220;19.878;2024-02-26T05:35:07;99617.94;;;9.47;100.00
75942;BME280;64622;46.220;19.878;2024-02-26T05:37:35;99615.75;;;9.50;100.00
75942;BME280;64622;46.220;19.878;2024-02-26T05:40:02;99621.91;;;9.59;100.00
75942;BME280;64622;46.220;19.878;2024-02-26T05:42:31;99626.56;;;9.65;100.00
75942;BME280;64622;46.220;19.878;2024-02-26T05:44:57;99623.72;;;9.74;100.00
75942;BME280;64622;46.220;19.878;2024-02-26T05:47:24;99624.06;;;9.71;100.00
75942;BME280;64622;46.220;19.878;2024-02-26T05:49:51;99630.69;;;9.83;100.00
75942;BME280;64622;46.220;19.878;2024-02-26T05:52:17;99624.84;;;9.96;100.00
75942;BME280;64622;46.220;19.878;2024-02-26T05:54:44;99623.16;;;9.95;100.00
75942;BME280;64622;46.220;19.878;2024-02-26T05:57:11;99633.38;;;9.99;100.00
75942;BME280;64622;46.220;19.878;2024-02-26T05:59:37;99636.53;;;9.95;100.00
75942;BME280;64622;46.220;19.878;2024-02-26T06:02:04;99627.34;;;9.97;100.00
75942;BME280;64622;46.220;19.878;2024-02-26T06:04:31;99637.53;;;9.94;100.00
75942;BME280;64622;46.220;19.878;2024-02-26T06:06:58;99639.88;;;10.05;100.00
75942;BME280;64622;46.220;19.878;2024-02-26T06:09:24;99653.06;;;9.98;100.00
75942;BME280;64622;46.220;19.878;2024-02-26T06:11:51;99651.56;;;9.96;100.00
75942;BME280;64622;46.220;19.878;2024-02-26T06:14:18;99641.38;;;9.91;100.00
75942;BME280;64622;46.220;19.878;2024-02-26T06:16:46;99657.09;;;9.94;100.00
75942;BME280;64622;46.220;19.878;2024-02-26T06:19:13;99657.44;;;9.83;100.00
75942;BME280;64622;46.220;19.878;2024-02-26T06:21:39;99652.06;;;9.99;100.00
75942;BME280;64622;46.220;19.878;2024-02-26T06:24:06;99646.56;;;9.85;100.00
75942;BME280;64622;46.220;19.878;2024-02-26T06:26:32;99651.59;;;9.80;100.00
75942;BME280;64622;46.220;19.878;2024-02-26T06:28:59;99660.78;;;9.85;100.00
75942;BME280;64622;46.220;19.878;2024-02-26T06:31:26;99663.47;;;9.85;100.00
75942;BME280;64622;46.220;19.878;2024-02-26T06:33:54;99657.75;;;9.88;100.00
75942;BME280;64622;46.220;19.878;2024-02-26T06:36:22;99661.28;;;9.89;100.00
75942;BME280;64622;46.220;19.878;2024-02-26T06:38:48;99658.59;;;9.97;100.00
75942;BME280;64622;46.220;19.878;2024-02-26T06:41:15;99657.09;;;9.94;100.00
75942;BME280;64622;46.220;19.878;2024-02-26T06:43:42;99671.63;;;9.92;100.00
75942;BME280;64622;46.220;19.878;2024-02-26T06:46:08;99681.97;;;9.95;100.00
75942;BME280;64622;46.220;19.878;2024-02-26T06:48:35;99691.34;;;9.91;100.00
75942;BME280;64622;46.220;19.878;2024-02-26T06:51:03;99688.16;;;9.95;100.00
75942;BME280;64622;46.220;19.878;2024-02-26T06:53:30;99691.66;;;9.96;100.00
75942;BME280;64622;46.220;19.878;2024-02-26T06:55:57;99684.16;;;10.07;100.00
75942;BME280;64622;46.220;19.878;2024-02-26T06:58:23;99690.69;;;10.13;100.00
75942;BME280;64622;46.220;19.878;2024-02-26T07:00:50;99691.66;;;10.04;100.00
75942;BME280;64622;46.220;19.878;2024-02-26T07:03:17;99691.81;;;10.18;100.00
75942;BME280;64622;46.220;19.878;2024-02-26T07:05:43;99690.34;;;10.08;100.00
75942;BME280;64622;46.220;19.878;2024-02-26T07:08:12;99695.00;;;10.22;100.00
75942;BME280;64622;46.220;19.878;2024-02-26T07:10:38;99686.28;;;10.28;100.00
75942;BME280;64622;46.220;19.878;2024-02-26T07:13:05;99695.78;;;10.38;100.00
75942;BME280;64622;46.220;19.878;2024-02-26T07:15:31;99698.22;;;10.56;100.00
75942;BME280;64622;46.220;19.878;2024-02-26T07:17:59;99676.66;;;10.57;100.00
75942;BME280;64622;46.220;19.878;2024-02-26T07:20:29;99682.97;;;10.64;100.00
75942;BME280;64622;46.220;19.878;2024-02-26T07:22:56;99696.09;;;10.82;100.00
75942;BME280;64622;46.220;19.878;2024-02-26T07:25:23;99689.06;;;10.81;100.00
75942;BME280;64622;46.220;19.878;2024-02-26T07:27:50;99686.75;;;10.78;100.00
75942;BME280;64622;46.220;19.878;2024-02-26T07:30:17;99691.69;;;11.42;100.00
75942;BME280;64622;46.220;19.878;2024-02-26T07:32:44;99692.38;;;11.44;100.00
75942;BME280;64622;46.220;19.878;2024-02-26T07:35:11;99694.31;;;12.09;100.00
75942;BME280;64622;46.220;19.878;2024-02-26T07:37:37;99694.53;;;12.08;100.00
75942;BME280;64622;46.220;19.878;2024-02-26T07:40:04;99691.56;;;12.03;100.00
75942;BME280;64622;46.220;19.878;2024-02-26T07:42:32;99695.75;;;12.63;100.00
75942;BME280;64622;46.220;19.878;2024-02-26T07:44:59;99694.94;;;12.34;100.00
75942;BME280;64622;46.220;19.878;2024-02-26T07:47:26;99698.53;;;12.55;100.00
75942;BME280;64622;46.220;19.878;2024-02-26T07:49:52;99706.56;;;12.70;100.00
75942;BME280;64622;46.220;19.878;2024-02-26T07:52:19;99700.56;;;12.53;100.00
75942;BME280;64622;46.220;19.878;2024-02-26T07:54:45;99702.13;;;12.77;100.00
75942;BME280;64622;46.220;19.878;2024-02-26T07:57:12;99707.03;;;13.02;100.00
75942;BME280;64622;46.220;19.878;2024-02-26T07:59:41;99705.47;;;12.79;100.00
75942;BME280;64622;46.220;19.878;2024-02-26T08:02:08;99701.72;;;12.94;100.00
75942;BME280;64622;46.220;19.878;2024-02-26T08:04:35;99693.78;;;12.86;100.00
75942;BME280;64622;46.220;19.878;2024-02-26T08:07:02;99692.91;;;13.15;100.00
75942;BME280;64622;46.220;19.878;2024-02-26T08:09:28;99701.84;;;12.86;100.00
75942;BME280;64622;46.220;19.878;2024-02-26T08:11:55;99693.44;;;12.46;100.00
75942;BME280;64622;46.220;19.878;2024-02-26T08:14:22;99707.41;;;12.56;100.00
75942;BME280;64622;46.220;19.878;2024-02-26T08:16:48;99698.44;;;12.49;100.00
75942;BME280;64622;46.220;19.878;2024-02-26T08:19:15;99708.53;;;12.61;100.00
75942;BME280;64622;46.220;19.878;2024-02-26T08:21:43;99708.41;;;12.69;100.00
75942;BME280;64622;46.220;19.878;2024-02-26T08:24:10;99709.84;;;12.65;100.00
75942;BME280;64622;46.220;19.878;2024-02-26T08:26:37;99700.62;;;12.74;100.00
75942;BME280;64622;46.220;19.878;2024-02-26T08:29:03;99705.59;;;13.63;100.00
75942;BME280;64622;46.220;19.878;2024-02-26T08:31:30;99702.59;;;13.72;100.00
75942;BME280;64622;46.220;19.878;2024-02-26T08:33:57;99705.09;;;12.96;100.00
75942;BME280;64622;46.220;19.878;2024-02-26T08:36:25;99705.16;;;13.03;100.00
75942;BME280;64622;46.220;19.878;2024-02-26T08:38:52;99715.44;;;13.14;100.00
75942;BME280;64622;46.220;19.878;2024-02-26T08:41:19;99707.38;;;13.14;100.00
75942;BME280;64622;46.220;19.878;2024-02-26T08:43:45;99707.34;;;13.91;100.00
75942;BME280;64622;46.220;19.878;2024-02-26T08:46:15;99711.03;;;13.90;100.00
75942;BME280;64622;46.220;19.878;2024-02-26T08:48:42;99712.69;;;13.70;100.00
75942;BME280;64622;46.220;19.878;2024-02-26T08:51:09;99701.28;;;14.72;100.00
75942;BME280;64622;46.220;19.878;2024-02-26T08:53:36;99700.50;;;14.44;100.00
75942;BME280;64622;46.220;19.878;2024-02-26T08:56:03;99693.41;;;14.15;100.00
75942;BME280;64622;46.220;19.878;2024-02-26T08:58:29;99704.13;;;15.04;100.00
75942;BME280;64622;46.220;19.878;2024-02-26T09:00:56;99711.22;;;15.18;100.00
75942;BME280;64622;46.220;19.878;2024-02-26T09:03:23;99692.34;;;14.65;100.00
75942;BME280;64622;46.220;19.878;2024-02-26T09:05:50;99720.69;;;14.61;100.00
75942;BME280;64622;46.220;19.878;2024-02-26T09:08:17;99697.84;;;14.50;100.00
75942;BME280;64622;46.220;19.878;2024-02-26T09:10:44;99702.28;;;15.11;100.00
75942;BME280;64622;46.220;19.878;2024-02-26T09:13:10;99707.62;;;15.58;100.00
75942;BME280;64622;46.220;19.878;2024-02-26T09:15:37;99698.06;;;15.36;100.00
75942;BME280;64622;46.220;19.878;2024-02-26T09:18:04;99691.88;;;15.75;100.00
75942;BME280;64622;46.220;19.878;2024-02-26T09:20:30;99690.84;;;15.95;100.00
75942;BME280;64622;46.220;19.878;2024-02-26T09:22:57;99696.41;;;16.26;100.00
75942;BME280;64622;46.220;19.878;2024-02-26T09:25:24;99695.84;;;15.98;100.00
75942;BME280;64622;46.220;19.878;2024-02-26T09:27:50;99690.84;;;16.02;100.00
75942;BME280;64622;46.220;19.878;2024-02-26T09:30:17;99683.16;;;16.25;100.00
75942;BME280;64622;46.220;19.878;2024-02-26T09:32:46;99686.69;;;15.93;100.00
75942;BME280;64622;46.220;19.878;2024-02-26T09:35:14;99695.78;;;16.63;100.00
75942;BME280;64622;46.220;19.878;2024-02-26T09:37:40;99693.75;;;15.74;100.00
75942;BME280;64622;46.220;19.878;2024-02-26T09:40:10;99694.56;;;16.33;100.00
75942;BME280;64622;46.220;19.878;2024-02-26T09:42:44;99696.22;;;16.28;100.00
75942;BME280;64622;46.220;19.878;2024-02-26T09:45:18;99689.81;;;16.22;100.00
75942;BME280;64622;46.220;19.878;2024-02-26T09:47:47;99697.25;;;16.14;100.00
75942;BME280;64622;46.220;19.878;2024-02-26T09:50:16;99692.44;;;16.61;100.00
75942;BME280;64622;46.220;19.878;2024-02-26T09:52:44;99690.84;;;16.15;100.00
75942;BME280;64622;46.220;19.878;2024-02-26T09:55:10;99695.22;;;16.22;100.00
75942;BME280;64622;46.220;19.878;2024-02-26T09:57:37;99701.41;;;16.29;100.00
75942;BME280;64622;46.220;19.878;2024-02-26T10:00:08;99691.66;;;16.48;100.00
75942;BME280;64622;46.220;19.878;2024-02-26T10:02:38;99701.00;;;16.52;100.00
75942;BME280;64622;46.220;19.878;2024-02-26T10:05:07;99719.72;;;16.27;100.00
75942;BME280;64622;46.220;19.878;2024-02-26T10:07:37;99695.22;;;16.99;100.00
75942;BME280;64622;46.220;19.878;2024-02-26T10:10:04;99699.66;;;16.87;100.00
75942;BME280;64622;46.220;19.878;2024-02-26T10:12:31;99702.25;;;17.13;99.54
75942;BME280;64622;46.220;19.878;2024-02-26T10:14:58;99702.06;;;17.83;96.92
75942;BME280;64622;46.220;19.878;2024-02-26T10:17:26;99698.09;;;17.10;98.61
75942;BME280;64622;46.220;19.878;2024-02-26T10:19:53;99699.75;;;17.11;97.30
75942;BME280;64622;46.220;19.878;2024-02-26T10:22:23;99688.91;;;17.86;96.09
75942;BME280;64622;46.220;19.878;2024-02-26T10:24:49;99676.22;;;18.11;91.78
75942;BME280;64622;46.220;19.878;2024-02-26T10:27:16;99677.56;;;17.71;93.08
75942;BME280;64622;46.220;19.878;2024-02-26T10:29:43;99672.72;;;18.29;91.62
75942;BME280;64622;46.220;19.878;2024-02-26T10:32:09;99676.09;;;18.00;93.90
75942;BME280;64622;46.220;19.878;2024-02-26T10:34:37;99663.97;;;18.33;92.57
75942;BME280;64622;46.220;19.878;2024-02-26T10:37:09;99670.16;;;18.58;87.79
75942;BME280;64622;46.220;19.878;2024-02-26T10:39:36;99663.97;;;18.33;86.51
75942;BME280;64622;46.220;19.878;2024-02-26T10:42:03;99666.97;;;18.61;87.15
75942;BME280;64622;46.220;19.878;2024-02-26T10:44:36;99671.94;;;18.46;88.76
75942;BME280;64622;46.220;19.878;2024-02-26T10:47:03;99667.31;;;18.04;88.71
75942;BME280;64622;46.220;19.878;2024-02-26T10:49:29;99657.66;;;18.93;85.51
75942;BME280;64622;46.220;19.878;2024-02-26T10:51:56;99664.50;;;18.96;85.19
75942;BME280;64622;46.220;19.878;2024-02-26T10:54:26;99664.03;;;18.45;85.00
75942;BME280;64622;46.220;19.878;2024-02-26T10:56:57;99661.66;;;18.91;80.67
75942;BME280;64622;46.220;19.878;2024-02-26T10:59:26;99656.03;;;18.32;80.88
75942;BME280;64622;46.220;19.878;2024-02-26T11:01:54;99657.37;;;19.31;83.93
75942;BME280;64622;46.220;19.878;2024-02-26T11:04:22;99656.78;;;19.29;78.55
75942;BME280;64622;46.220;19.878;2024-02-26T11:06:49;99657.13;;;18.49;79.86
75942;BME280;64622;46.220;19.878;2024-02-26T11:09:17;99659.44;;;18.99;75.95
75942;BME280;64622;46.220;19.878;2024-02-26T11:11:45;99651.84;;;19.37;73.59
75942;BME280;64622;46.220;19.878;2024-02-26T11:14:14;99652.94;;;19.18;74.65
75942;BME280;64622;46.220;19.878;2024-02-26T11:16:41;99650.09;;;19.95;73.11
75942;BME280;64622;46.220;19.878;2024-02-26T11:19:10;99644.19;;;18.51;76.96
75942;BME280;64622;46.220;19.878;2024-02-26T11:21:38;99648.81;;;18.98;75.30
75942;BME280;64622;46.220;19.878;2024-02-26T11:24:07;99640.50;;;19.29;72.45
75942;BME280;64622;46.220;19.878;2024-02-26T11:26:39;99638.28;;;19.37;74.68
75942;BME280;64622;46.220;19.878;2024-02-26T11:29:09;99639.91;;;19.68;75.11
75942;BME280;64622;46.220;19.878;2024-02-26T11:31:38;99635.53;;;19.67;71.31
75942;BME280;64622;46.220;19.878;2024-02-26T11:34:07;99633.06;;;19.06;75.02
75942;BME280;64622;46.220;19.878;2024-02-26T11:36:36;99629.03;;;18.19;78.82
75942;BME280;64622;46.220;19.878;2024-02-26T11:39:04;99628.59;;;19.12;76.13
75942;BME280;64622;46.220;19.878;2024-02-26T11:41:32;99623.62;;;18.79;77.84
75942;BME280;64622;46.220;19.878;2024-02-26T11:44:00;99622.56;;;18.20;80.17
75942;BME280;64622;46.220;19.878;2024-02-26T11:46:41;99626.03;;;18.33;79.96
75942;BME280;64622;46.220;19.878;2024-02-26T11:51:55;99619.28;;;18.18;80.45
75942;BME280;64622;46.220;19.878;2024-02-26T11:54:56;99618.03;;;18.56;78.66
75942;BME280;64622;46.220;19.878;2024-02-26T12:00:13;99613.53;;;18.50;79.84
75942;BME280;64622;46.220;19.878;2024-02-26T12:02:44;99610.75;;;18.39;78.94
75942;BME280;64622;46.220;19.878;2024-02-26T12:05:18;99620.16;;;18.54;80.03
75942;BME280;64622;46.220;19.878;2024-02-26T12:07:48;99613.47;;;18.57;79.86
75942;BME280;64622;46.220;19.878;2024-02-26T12:10:21;99613.09;;;18.11;80.25
75942;BME280;64622;46.220;19.878;2024-02-26T12:12:59;99613.31;;;18.52;79.34
75942;BME280;64622;46.220;19.878;2024-02-26T12:18:20;99617.59;;;17.74;84.36
75942;BME280;64622;46.220;19.878;2024-02-26T12:20:58;99614.00;;;18.23;82.51
75942;BME280;64622;46.220;19.878;2024-02-26T12:23:25;99612.84;;;18.37;80.68
75942;BME280;64622;46.220;19.878;2024-02-26T12:25:51;99606.44;;;18.67;81.86
75942;BME280;64622;46.220;19.878;2024-02-26T12:28:18;99618.72;;;18.70;81.55
75942;BME280;64622;46.220;19.878;2024-02-26T12:30:45;99613.19;;;18.94;80.04
75942;BME280;64622;46.220;19.878;2024-02-26T12:33:12;99614.28;;;18.75;79.07
75942;BME280;64622;46.220;19.878;2024-02-26T12:35:39;99617.31;;;18.49;77.71
75942;BME280;64622;46.220;19.878;2024-02-26T12:38:06;99618.94;;;18.08;76.82
75942;BME280;64622;46.220;19.878;2024-02-26T12:40:32;99617.38;;;18.61;75.87
75942;BME280;64622;46.220;19.878;2024-02-26T12:42:59;99613.13;;;18.83;76.55
75942;BME280;64622;46.220;19.878;2024-02-26T12:45:26;99615.56;;;18.73;83.34
75942;BME280;64622;46.220;19.878;2024-02-26T12:47:54;99616.41;;;19.03;78.69
75942;BME280;64622;46.220;19.878;2024-02-26T12:50:21;99609.38;;;18.48;79.22
75942;BME280;64622;46.220;19.878;2024-02-26T12:52:48;99609.34;;;18.30;78.81
75942;BME280;64622;46.220;19.878;2024-02-26T12:55:18;99611.16;;;18.18;79.92